KHUL

Houlton International Airport

Houlton, Maine, USA
METAR KHUL 230453Z AUTO 23004KT 10SM CLR M03/M08 A3014 RMK AO2 SLP215 T10331078 400561067
Observed Flight Rules
Oct-23 @ 04:53 UTC (24 minutes ago) Visual Flight Rules
Wind Visibility Clouds
230° at 4 knots 10 miles
  • Clear skies
Temperatures Readings
Current -3°C / 27°F
Dewpoint -8°C / 18°F
Humidity 69%
Altimeter 30.14" Hg
Pressure 1021.5 hPa
Elevation 150
METAR KHUL 230453Z AUTO 23004KT 10SM CLR M03/M08 A3014 RMK AO2 SLP215 T10331078 400561067
Observed Flight Rules
Oct-23 @ 04:53 UTC
(24 minutes ago)
VFR
Wind Visibility
230° at 4 knots 10 miles
Clouds
  • Clear skies
Temperature Dewpoint
-3°C / 27°F -8°C / 18°F
Humidity Altimeter Pressure
69% 30.14" Hg 1021.5 hPa